createdAt,value
2019-03-28T00:02:21.700Z,88.67
2019-03-28T00:04:53.051Z,88.69
2019-03-28T00:07:24.686Z,88.79
2019-03-28T00:09:56.076Z,89.02
2019-03-28T00:12:27.363Z,89.37
2019-03-28T00:14:58.878Z,89.26
2019-03-28T00:17:30.254Z,89.29
2019-03-28T00:20:01.881Z,89.77
2019-03-28T00:22:43.959Z,89.79
2019-03-28T00:25:15.851Z,90.06
2019-03-28T00:27:47.151Z,90.45
2019-03-28T00:30:20.203Z,90.46
2019-03-28T00:32:52.321Z,90.38
2019-03-28T00:35:23.643Z,90.52
2019-03-28T00:37:54.942Z,90.53
2019-03-28T00:40:26.851Z,90.29
2019-03-28T00:42:58.411Z,90.63
2019-03-28T00:45:30.064Z,90.72
2019-03-28T00:48:01.591Z,90.12
2019-03-28T00:50:33.251Z,89.51
2019-03-28T00:53:04.557Z,89.48
2019-03-28T00:55:36.128Z,88.90
2019-03-28T00:58:07.492Z,89.38
2019-03-28T01:00:38.872Z,89.22
2019-03-28T01:03:11.178Z,89.72
2019-03-28T01:05:42.779Z,89.70
2019-03-28T01:08:14.374Z,90.40
2019-03-28T01:10:45.742Z,90.46
2019-03-28T01:13:17.117Z,89.75
2019-03-28T01:15:49.258Z,89.30
2019-03-28T01:18:21.035Z,89.66
2019-03-28T01:20:52.802Z,89.95
2019-03-28T01:23:24.228Z,89.66
2019-03-28T01:25:55.762Z,89.81
2019-03-28T01:28:27.562Z,90.38
2019-03-28T01:30:59.193Z,90.23
2019-03-28T01:33:30.981Z,90.38
2019-03-28T01:36:02.436Z,90.37
2019-03-28T01:38:34.066Z,90.64
2019-03-28T01:41:05.834Z,90.56
2019-03-28T01:43:37.456Z,90.63
2019-03-28T01:46:09.737Z,91.14
2019-03-28T01:48:41.587Z,91.48
2019-03-28T01:51:13.459Z,91.52
2019-03-28T01:53:45.029Z,91.27
2019-03-28T01:56:16.420Z,90.96
2019-03-28T01:58:48.059Z,91.17
2019-03-28T02:01:19.370Z,90.78
2019-03-28T02:03:51.018Z,90.16
2019-03-28T02:06:22.334Z,89.42
2019-03-28T02:08:53.970Z,89.09
2019-03-28T02:11:25.368Z,88.34
2019-03-28T02:13:57.673Z,87.97
2019-03-28T02:16:28.988Z,87.62
2019-03-28T02:19:00.887Z,86.84
2019-03-28T02:21:32.709Z,87.22
2019-03-28T02:24:04.169Z,87.18
2019-03-28T02:26:35.726Z,87.38
2019-03-28T02:29:07.495Z,87.27
2019-03-28T02:31:39.251Z,87.54
2019-03-28T02:34:10.589Z,88.64
2019-03-28T02:36:41.989Z,88.86
2019-03-28T02:39:13.309Z,88.94
2019-03-28T02:41:44.703Z,88.53
2019-03-28T02:44:16.293Z,88.06
2019-03-28T02:46:47.916Z,87.53
2019-03-28T02:49:19.881Z,87.57
2019-03-28T02:51:51.426Z,88.02
2019-03-28T02:54:22.717Z,86.94
2019-03-28T02:56:54.129Z,86.76
2019-03-28T02:59:25.707Z,87.07
2019-03-28T03:01:57.657Z,87.24
2019-03-28T03:04:29.071Z,86.24
2019-03-28T03:07:00.708Z,84.62
2019-03-28T03:09:32.309Z,84.02
2019-03-28T03:12:03.976Z,83.99
2019-03-28T03:14:37.523Z,85.08
2019-03-28T03:17:09.415Z,85.02
2019-03-28T03:19:40.821Z,84.81
2019-03-28T03:22:12.432Z,85.09
2019-03-28T03:24:44.056Z,84.46
2019-03-28T03:27:15.888Z,84.32
2019-03-28T03:29:47.500Z,85.43
2019-03-28T03:32:18.821Z,85.82
2019-03-28T03:34:50.678Z,86.38
2019-03-28T03:37:22.993Z,87.32
2019-03-28T03:39:54.489Z,87.62
2019-03-28T03:42:26.375Z,88.47
2019-03-28T03:45:01.150Z,88.77
2019-03-28T03:47:33.209Z,88.51
2019-03-28T03:50:05.326Z,88.24
2019-03-28T03:52:36.723Z,88.29
2019-03-28T03:55:08.437Z,88.40
2019-03-28T03:57:40.627Z,89.05
2019-03-28T04:00:13.689Z,89.13
2019-03-28T04:02:45.481Z,89.97
2019-03-28T04:05:16.847Z,89.80
2019-03-28T04:07:48.139Z,89.72
2019-03-28T04:10:19.483Z,89.42
2019-03-28T04:12:51.101Z,89.62
2019-03-28T04:15:22.531Z,90.03
2019-03-28T04:17:53.931Z,90.46
2019-03-28T04:20:25.377Z,90.58
2019-03-28T04:22:57.931Z,90.92
2019-03-28T04:25:29.853Z,91.09
2019-03-28T04:28:01.632Z,91.45
2019-03-28T04:30:33.206Z,91.14
2019-03-28T04:33:04.828Z,91.11
2019-03-28T04:35:36.465Z,91.61
2019-03-28T04:38:08.102Z,91.74
2019-03-28T04:40:39.959Z,91.68
2019-03-28T04:43:12.544Z,91.83
2019-03-28T04:45:44.519Z,91.71
2019-03-28T04:48:15.842Z,91.79
2019-03-28T04:50:48.376Z,91.77
2019-03-28T04:53:20.660Z,92.43
2019-03-28T04:55:52.320Z,92.80
2019-03-28T04:58:23.894Z,93.00
2019-03-28T05:00:55.307Z,93.49
2019-03-28T05:03:26.694Z,93.57
2019-03-28T05:05:58.484Z,93.62
2019-03-28T05:08:30.210Z,93.36
2019-03-28T05:11:01.548Z,93.02
2019-03-28T05:13:34.111Z,93.31
2019-03-28T05:16:05.524Z,92.93
2019-03-28T05:18:37.063Z,92.75
2019-03-28T05:21:08.557Z,92.27
2019-03-28T05:23:40.578Z,93.11
2019-03-28T05:26:12.348Z,93.10
2019-03-28T05:29:03.355Z,93.58
2019-03-28T05:31:53.116Z,94.08
2019-03-28T05:34:42.933Z,94.48
2019-03-28T05:37:32.999Z,94.44
2019-03-28T05:40:04.806Z,94.42
2019-03-28T05:42:36.216Z,94.73
2019-03-28T05:45:08.079Z,94.57
2019-03-28T05:47:39.690Z,94.62
2019-03-28T05:50:11.100Z,94.82
2019-03-28T05:52:42.460Z,94.87
2019-03-28T05:55:13.793Z,94.92
2019-03-28T05:57:45.710Z,94.65
2019-03-28T06:00:17.534Z,94.28
2019-03-28T06:02:48.933Z,94.22
2019-03-28T06:05:20.251Z,94.12
2019-03-28T06:07:51.570Z,94.20
2019-03-28T06:10:22.976Z,94.29
2019-03-28T06:12:54.295Z,94.04
2019-03-28T06:15:28.819Z,93.92
2019-03-28T06:18:00.134Z,93.77
2019-03-28T06:20:31.469Z,93.90
2019-03-28T06:23:03.174Z,92.50
2019-03-28T06:25:34.581Z,91.05
2019-03-28T06:28:06.300Z,90.61
2019-03-28T06:30:37.716Z,91.54
2019-03-28T06:33:09.105Z,90.66
2019-03-28T06:35:40.912Z,89.46
2019-03-28T06:38:12.326Z,88.75
2019-03-28T06:40:43.972Z,89.28
2019-03-28T06:43:15.710Z,90.00
2019-03-28T06:45:47.404Z,89.79
2019-03-28T06:48:19.019Z,89.28
2019-03-28T06:50:50.345Z,90.36
2019-03-28T06:53:21.967Z,90.08
2019-03-28T06:55:53.295Z,89.83
2019-03-28T06:58:24.864Z,90.12
2019-03-28T07:00:56.312Z,89.43
2019-03-28T07:03:27.701Z,88.49
2019-03-28T07:05:59.594Z,87.72
2019-03-28T07:08:30.929Z,87.52
2019-03-28T07:11:02.625Z,87.69
2019-03-28T07:13:35.068Z,87.34
2019-03-28T07:16:06.472Z,86.63
2019-03-28T07:18:37.975Z,85.13
2019-03-28T07:21:09.415Z,83.61
2019-03-28T07:23:40.741Z,82.63
2019-03-28T07:26:12.228Z,81.60
2019-03-28T07:28:45.244Z,81.41
2019-03-28T07:31:16.647Z,82.09
2019-03-28T07:33:47.961Z,80.18
2019-03-28T07:36:20.253Z,79.98
2019-03-28T07:38:51.567Z,79.17
2019-03-28T07:41:24.141Z,79.99
2019-03-28T07:43:55.824Z,79.98
2019-03-28T07:46:27.240Z,79.98
2019-03-28T07:48:58.546Z,78.93
2019-03-28T07:51:30.170Z,78.95
2019-03-28T07:54:01.472Z,78.79
2019-03-28T07:56:33.030Z,78.03
2019-03-28T07:59:04.443Z,78.25
2019-03-28T08:01:36.180Z,76.39
2019-03-28T08:04:07.574Z,76.14
2019-03-28T08:06:49.128Z,77.33
2019-03-28T08:09:12.227Z,76.35
2019-03-28T08:11:44.060Z,75.64
2019-03-28T08:14:15.675Z,74.62
2019-03-28T08:16:47.287Z,74.38
2019-03-28T08:19:18.832Z,73.78
2019-03-28T08:21:50.324Z,74.03
2019-03-28T08:24:21.887Z,75.18
2019-03-28T08:26:53.524Z,76.00
2019-03-28T08:29:25.108Z,75.48
2019-03-28T08:31:57.201Z,75.19
2019-03-28T08:34:31.315Z,75.33
2019-03-28T08:37:02.420Z,73.96
2019-03-28T08:39:34.245Z,73.20
2019-03-28T08:42:06.111Z,74.26
2019-03-28T08:44:38.535Z,74.77
2019-03-28T08:47:10.544Z,74.15
2019-03-28T08:49:42.219Z,72.00
2019-03-28T08:52:13.889Z,71.75
2019-03-28T08:54:45.445Z,71.96
2019-03-28T08:57:17.129Z,70.77
2019-03-28T08:59:48.776Z,71.72
2019-03-28T09:02:20.101Z,69.85
2019-03-28T09:04:51.441Z,70.73
2019-03-28T09:07:22.838Z,71.89
2019-03-28T09:09:54.251Z,70.93
2019-03-28T09:12:26.139Z,70.03
2019-03-28T09:14:57.480Z,70.67
2019-03-28T09:17:28.784Z,68.33
2019-03-28T09:20:00.887Z,68.50
2019-03-28T09:22:32.456Z,68.12
2019-03-28T09:25:04.109Z,68.37
2019-03-28T09:27:35.980Z,67.41
2019-03-28T09:30:08.260Z,67.05
2019-03-28T09:32:39.993Z,67.37
2019-03-28T09:35:13.442Z,66.48
2019-03-28T09:37:45.737Z,66.58
2019-03-28T09:40:17.429Z,66.54
2019-03-28T09:42:49.125Z,66.12
2019-03-28T09:45:20.553Z,65.45
2019-03-28T09:47:51.899Z,64.79
2019-03-28T09:50:23.247Z,63.94
2019-03-28T09:52:55.433Z,64.16
2019-03-28T09:55:26.790Z,64.00
2019-03-28T09:57:58.156Z,63.08
2019-03-28T10:00:32.629Z,62.77
2019-03-28T10:03:03.012Z,63.03
2019-03-28T10:05:37.748Z,62.55
2019-03-28T10:08:07.730Z,62.30
2019-03-28T10:10:39.356Z,61.76
2019-03-28T10:13:11.013Z,62.09
2019-03-28T10:15:43.807Z,61.61
2019-03-28T10:18:15.985Z,61.38
2019-03-28T10:20:47.310Z,61.44
2019-03-28T10:23:19.620Z,61.02
2019-03-28T10:25:51.467Z,61.45
2019-03-28T10:28:23.115Z,60.80
2019-03-28T10:30:54.512Z,61.02
2019-03-28T10:33:28.232Z,60.36
2019-03-28T10:35:59.879Z,59.06
2019-03-28T10:38:31.298Z,60.39
2019-03-28T10:41:02.776Z,59.48
2019-03-28T10:43:34.157Z,58.59
2019-03-28T10:46:05.828Z,57.19
2019-03-28T10:48:37.475Z,57.91
2019-03-28T10:51:08.882Z,56.29
2019-03-28T10:53:40.447Z,55.86
2019-03-28T10:56:21.587Z,55.86
2019-03-28T10:58:45.425Z,55.39
2019-03-28T11:01:31.293Z,54.65
2019-03-28T11:03:49.902Z,55.35
2019-03-28T11:06:21.287Z,52.83
2019-03-28T11:08:52.628Z,51.31
2019-03-28T11:11:24.072Z,53.97
2019-03-28T11:13:55.420Z,52.38
2019-03-28T11:16:27.139Z,51.44
2019-03-28T11:18:59.518Z,52.20
2019-03-28T11:21:34.183Z,49.99
2019-03-28T11:24:04.679Z,50.99
2019-03-28T11:26:36.295Z,49.93
2019-03-28T11:29:08.113Z,50.49
2019-03-28T11:31:46.697Z,48.06
2019-03-28T11:34:14.684Z,48.06
2019-03-28T11:36:46.230Z,46.22
2019-03-28T11:39:17.835Z,46.19
2019-03-28T11:41:49.470Z,47.28
2019-03-28T11:44:21.184Z,47.64
2019-03-28T11:46:52.508Z,48.62
2019-03-28T11:49:23.843Z,49.05
2019-03-28T11:51:55.481Z,49.23
2019-03-28T11:54:27.056Z,49.05
2019-03-28T11:56:58.677Z,47.63
2019-03-28T11:59:30.319Z,46.50
2019-03-28T12:02:18.631Z,47.61
2019-03-28T12:04:34.653Z,47.97
2019-03-28T12:07:06.038Z,46.75
2019-03-28T12:09:38.234Z,47.01
2019-03-28T12:12:09.828Z,46.18
2019-03-28T12:14:41.455Z,47.13
2019-03-28T12:17:12.781Z,47.48
2019-03-28T12:19:44.155Z,46.62
2019-03-28T12:22:15.556Z,46.07
2019-03-28T12:24:46.909Z,45.48
2019-03-28T12:27:18.299Z,46.45
2019-03-28T12:29:49.891Z,47.60
2019-03-28T12:32:21.896Z,46.91
2019-03-28T12:34:53.225Z,48.30
2019-03-28T12:37:24.868Z,47.19
2019-03-28T12:39:59.848Z,48.41
2019-03-28T12:42:29.733Z,46.62
2019-03-28T12:45:02.034Z,47.87
2019-03-28T12:47:42.372Z,47.14
2019-03-28T12:50:06.990Z,45.73
2019-03-28T12:52:38.616Z,46.79
2019-03-28T12:55:10.397Z,48.04
2019-03-28T12:57:42.211Z,47.03
2019-03-28T13:00:13.967Z,45.71
2019-03-28T13:02:45.579Z,45.79
2019-03-28T13:05:17.308Z,44.53
2019-03-28T13:07:48.641Z,46.47
2019-03-28T13:10:20.117Z,45.74
2019-03-28T13:12:51.727Z,46.30
2019-03-28T13:15:23.516Z,43.58
2019-03-28T13:17:54.930Z,44.20
2019-03-28T13:20:26.432Z,45.83
2019-03-28T13:22:58.034Z,46.28
2019-03-28T13:25:29.620Z,47.33
2019-03-28T13:28:00.943Z,47.79
2019-03-28T13:30:32.362Z,47.34
2019-03-28T13:33:04.125Z,47.32
2019-03-28T13:35:35.691Z,47.38
2019-03-28T13:38:06.996Z,46.96
2019-03-28T13:40:38.551Z,47.57
2019-03-28T13:43:09.930Z,45.29
2019-03-28T13:45:41.638Z,46.08
2019-03-28T13:48:13.890Z,45.88
2019-03-28T13:50:45.371Z,46.05
2019-03-28T13:53:17.719Z,46.05
2019-03-28T13:55:52.008Z,47.47
2019-03-28T13:58:23.265Z,47.43
2019-03-28T14:00:56.325Z,46.22
2019-03-28T14:03:29.037Z,46.78
2019-03-28T14:06:01.248Z,45.80
2019-03-28T14:08:32.654Z,46.67
2019-03-28T14:11:03.997Z,46.52
2019-03-28T14:13:35.326Z,46.44
2019-03-28T14:16:06.750Z,48.87
2019-03-28T14:18:38.097Z,49.18
2019-03-28T14:21:09.494Z,50.71
2019-03-28T14:23:41.084Z,50.63
2019-03-28T14:26:12.495Z,51.07
2019-03-28T14:28:44.210Z,50.00
2019-03-28T14:31:15.771Z,50.01
2019-03-28T14:33:47.627Z,50.88
2019-03-28T14:36:19.167Z,51.00
2019-03-28T14:38:50.741Z,48.59
2019-03-28T14:41:22.627Z,50.66
2019-03-28T14:43:55.308Z,51.08
2019-03-28T14:46:27.915Z,51.06
2019-03-28T14:48:59.587Z,50.12
2019-03-28T14:51:30.956Z,51.41
2019-03-28T14:54:02.541Z,51.79
2019-03-28T14:56:34.295Z,53.23
2019-03-28T14:59:05.805Z,51.41
2019-03-28T15:01:37.187Z,52.50
2019-03-28T15:04:08.594Z,52.92
2019-03-28T15:06:39.983Z,52.68
2019-03-28T15:09:11.630Z,51.28
2019-03-28T15:11:43.501Z,49.42
2019-03-28T15:14:14.893Z,50.67
2019-03-28T15:16:46.421Z,52.01
2019-03-28T15:19:17.758Z,52.19
2019-03-28T15:21:49.434Z,52.30
2019-03-28T15:24:20.912Z,52.75
2019-03-28T15:26:53.012Z,50.54
2019-03-28T15:29:24.387Z,52.50
2019-03-28T15:31:56.251Z,52.32
2019-03-28T15:34:27.874Z,52.47
2019-03-28T15:36:59.197Z,52.33
2019-03-28T15:39:31.623Z,52.31
2019-03-28T15:42:03.218Z,53.38
2019-03-28T15:44:34.793Z,54.22
2019-03-28T15:47:06.346Z,54.07
2019-03-28T15:49:37.900Z,55.30
2019-03-28T15:52:09.198Z,53.74
2019-03-28T15:54:41.574Z,54.56
2019-03-28T15:57:13.230Z,55.13
2019-03-28T15:59:45.378Z,55.17
2019-03-28T16:02:17.009Z,55.80
2019-03-28T16:04:48.334Z,55.69
2019-03-28T16:07:20.130Z,55.57
2019-03-28T16:09:52.004Z,55.02
2019-03-28T16:12:23.624Z,54.55
2019-03-28T16:14:55.842Z,55.44
2019-03-28T16:17:27.324Z,55.65
2019-03-28T16:19:58.958Z,54.97
2019-03-28T16:22:30.597Z,55.55
2019-03-28T16:25:02.174Z,55.73
2019-03-28T16:27:33.552Z,55.24
2019-03-28T16:30:05.673Z,55.35
2019-03-28T16:32:37.522Z,54.57
2019-03-28T16:35:09.259Z,55.40
2019-03-28T16:37:40.584Z,54.83
2019-03-28T16:40:12.156Z,55.83
2019-03-28T16:42:43.472Z,54.53
2019-03-28T16:45:15.092Z,55.49
2019-03-28T16:47:46.612Z,56.74
2019-03-28T16:50:18.235Z,56.31
2019-03-28T16:52:49.784Z,57.23
2019-03-28T16:55:26.633Z,56.88
2019-03-28T16:57:54.662Z,57.56
2019-03-28T17:00:35.402Z,56.68
2019-03-28T17:03:07.428Z,57.98
2019-03-28T17:05:38.894Z,59.39
2019-03-28T17:08:10.573Z,60.88
2019-03-28T17:10:55.067Z,61.92
2019-03-28T17:13:26.747Z,60.44
2019-03-28T17:15:58.160Z,61.43
2019-03-28T17:18:30.559Z,62.02
2019-03-28T17:21:02.911Z,60.11
2019-03-28T17:23:35.544Z,60.32
2019-03-28T17:26:06.982Z,61.74
2019-03-28T17:28:38.904Z,62.39
2019-03-28T17:31:10.507Z,63.84
2019-03-28T17:33:41.832Z,63.84
2019-03-28T17:36:13.379Z,62.71
2019-03-28T17:38:44.972Z,62.71
2019-03-28T17:41:16.610Z,63.36
2019-03-28T17:43:48.016Z,64.90
2019-03-28T17:46:19.801Z,64.38
2019-03-28T17:48:51.124Z,63.57
2019-03-28T17:51:22.765Z,65.22
2019-03-28T17:53:56.119Z,64.86
2019-03-28T17:56:27.748Z,65.84
2019-03-28T17:58:59.298Z,66.24
2019-03-28T18:01:30.730Z,66.08
2019-03-28T18:04:02.047Z,66.23
2019-03-28T18:06:35.255Z,66.92
2019-03-28T18:09:08.283Z,68.01
2019-03-28T18:11:39.616Z,68.06
2019-03-28T18:14:10.929Z,68.66
2019-03-28T18:16:42.344Z,69.54
2019-03-28T18:19:13.683Z,69.86
2019-03-28T18:21:45.396Z,70.41
2019-03-28T18:24:16.733Z,70.98
2019-03-28T18:26:49.027Z,71.61
2019-03-28T18:29:21.159Z,71.96
2019-03-28T18:31:52.898Z,72.95
2019-03-28T18:34:24.479Z,72.23
2019-03-28T18:36:55.878Z,73.54
2019-03-28T18:39:28.849Z,73.28
2019-03-28T18:42:00.454Z,73.07
2019-03-28T18:44:31.773Z,73.53
2019-03-28T18:47:03.188Z,73.74
2019-03-28T18:49:34.815Z,72.48
2019-03-28T18:52:07.491Z,72.93
2019-03-28T18:54:39.045Z,72.81
2019-03-28T18:57:10.466Z,73.88
2019-03-28T18:59:42.376Z,74.22
2019-03-28T19:02:14.134Z,71.90
2019-03-28T19:04:45.861Z,72.28
2019-03-28T19:07:17.570Z,70.10
2019-03-28T19:09:49.676Z,72.11
2019-03-28T19:12:21.115Z,72.15
2019-03-28T19:14:53.284Z,71.33
2019-03-28T19:17:24.676Z,72.35
2019-03-28T19:19:59.346Z,72.74
2019-03-28T19:22:29.306Z,73.31
2019-03-28T19:25:00.938Z,74.32
2019-03-28T19:27:34.287Z,74.88
2019-03-28T19:30:06.097Z,75.58
2019-03-28T19:32:38.083Z,76.08
2019-03-28T19:35:09.639Z,76.87
2019-03-28T19:37:42.005Z,77.80
2019-03-28T19:40:13.828Z,78.23
2019-03-28T19:42:45.471Z,78.83
2019-03-28T19:45:26.754Z,79.02
2019-03-28T19:47:58.167Z,79.28
2019-03-28T19:50:29.871Z,79.84
2019-03-28T19:53:01.495Z,80.18
2019-03-28T19:55:33.115Z,80.92
2019-03-28T19:58:05.001Z,81.42
2019-03-28T20:00:36.788Z,81.44
2019-03-28T20:03:08.644Z,81.77
2019-03-28T20:05:47.487Z,82.14
2019-03-28T20:08:15.894Z,82.54
2019-03-28T20:10:46.211Z,82.75
2019-03-28T20:13:17.602Z,83.12
2019-03-28T20:15:49.135Z,83.24
2019-03-28T20:18:21.019Z,83.91
2019-03-28T20:20:55.575Z,84.35
2019-03-28T20:23:25.653Z,84.29
2019-03-28T20:25:58.858Z,84.36
2019-03-28T20:28:30.401Z,84.84
2019-03-28T20:31:01.821Z,85.63
2019-03-28T20:33:33.210Z,85.77
2019-03-28T20:36:30.200Z,86.17
2019-03-28T20:38:38.405Z,86.19
2019-03-28T20:41:09.835Z,86.67
2019-03-28T20:43:41.175Z,86.59
2019-03-28T20:46:12.545Z,87.13
2019-03-28T20:48:44.932Z,87.45
2019-03-28T20:51:16.547Z,87.54
2019-03-28T20:53:48.583Z,87.89
2019-03-28T20:56:20.446Z,87.95
2019-03-28T20:58:51.785Z,88.12
2019-03-28T21:01:23.241Z,88.66
2019-03-28T21:03:54.619Z,89.20
2019-03-28T21:06:26.164Z,88.96
2019-03-28T21:08:57.537Z,89.26
2019-03-28T21:11:29.586Z,89.07
2019-03-28T21:14:03.069Z,90.20
2019-03-28T21:16:34.689Z,90.25
2019-03-28T21:19:06.047Z,90.23
2019-03-28T21:21:37.430Z,90.32
2019-03-28T21:24:09.042Z,91.04
2019-03-28T21:26:41.077Z,90.86
2019-03-28T21:29:12.669Z,91.29
2019-03-28T21:31:49.785Z,90.80
2019-03-28T21:34:17.497Z,91.01
2019-03-28T21:36:50.509Z,91.39
2019-03-28T21:39:21.966Z,91.41
2019-03-28T21:41:54.034Z,91.76
2019-03-28T21:44:25.586Z,91.96
2019-03-28T21:46:57.120Z,91.37
2019-03-28T21:49:28.758Z,91.81
2019-03-28T21:52:00.154Z,92.10
2019-03-28T21:54:31.683Z,92.19
2019-03-28T21:57:03.084Z,91.97
2019-03-28T21:59:34.382Z,92.34
2019-03-28T22:02:06.010Z,92.46
2019-03-28T22:04:37.532Z,92.58
2019-03-28T22:07:09.161Z,92.46
2019-03-28T22:09:40.766Z,92.63
2019-03-28T22:12:12.103Z,92.63
2019-03-28T22:14:43.436Z,92.37
2019-03-28T22:17:15.196Z,92.64
2019-03-28T22:19:47.153Z,92.51
2019-03-28T22:22:18.480Z,92.91
2019-03-28T22:24:50.397Z,93.03
2019-03-28T22:27:22.217Z,93.09
2019-03-28T22:29:53.880Z,92.73
2019-03-28T22:32:25.505Z,92.81
2019-03-28T22:34:57.126Z,93.56
2019-03-28T22:37:28.892Z,93.85
2019-03-28T22:40:00.525Z,94.13
2019-03-28T22:42:31.878Z,94.08
2019-03-28T22:45:03.717Z,94.34
2019-03-28T22:47:35.875Z,94.44
2019-03-28T22:50:08.867Z,94.23
2019-03-28T22:52:40.184Z,95.02
2019-03-28T22:55:12.090Z,95.04
2019-03-28T22:57:43.719Z,95.24
2019-03-28T23:00:15.508Z,95.27
2019-03-28T23:02:48.428Z,95.29
2019-03-28T23:05:20.122Z,95.64
2019-03-28T23:07:51.547Z,95.37
2019-03-28T23:10:23.157Z,95.61
2019-03-28T23:12:54.752Z,95.55
2019-03-28T23:15:26.424Z,95.47
2019-03-28T23:17:57.834Z,95.64
2019-03-28T23:20:29.133Z,95.61
2019-03-28T23:23:00.466Z,95.96
2019-03-28T23:25:31.840Z,95.73
2019-03-28T23:28:03.246Z,95.87
2019-03-28T23:30:34.947Z,96.28
2019-03-28T23:33:06.392Z,96.25
2019-03-28T23:35:37.931Z,96.20
2019-03-28T23:38:09.295Z,96.25
2019-03-28T23:40:40.674Z,96.36
2019-03-28T23:43:12.087Z,96.92
2019-03-28T23:45:43.724Z,96.67
2019-03-28T23:48:15.593Z,96.51
2019-03-28T23:50:46.895Z,95.77
2019-03-28T23:53:18.287Z,96.42
2019-03-28T23:55:49.659Z,96.73
2019-03-28T23:58:21.273Z,96.59
